EDT,Max TemperatureF,Mean TemperatureF,Min TemperatureF,Max Dew PointF,MeanDew PointF,Min DewpointF,Max Humidity, Mean Humidity, Min Humidity, Max Sea Level PressureIn, Mean Sea Level PressureIn, Min Sea Level PressureIn, Max VisibilityMiles, Mean VisibilityMiles, Min VisibilityMiles, Max Wind SpeedMPH, Mean Wind SpeedMPH, Max Gust SpeedMPH,PrecipitationIn, CloudCover, Events, WindDirDegrees
2013-8-1,87,79,73,79,76,73,100,95,74,30.02,29.99,29.95,10,10,10,13,2,17,0.00,7,Rain,224
2013-8-2,91,80,71,80,76,72,100,88,68,30.05,30.00,29.95,10,10,10,12,3,,0.00,4,Rain-Thunderstorm,181
2013-8-3,94,84,74,81,78,74,100,84,58,30.05,30.01,29.95,10,10,10,9,1,,0.00,3,Rain,283
2013-8-4,92,84,76,80,78,76,100,84,67,30.02,29.98,29.92,10,10,10,16,6,21,0.00,3,,258
2013-8-5,88,81,75,81,78,74,100,92,79,30.02,29.99,29.94,10,6,1,16,3,22,0.00,4,Rain,87
2013-8-6,88,80,73,80,77,73,100,91,74,30.03,29.99,29.94,10,10,6,15,3,,0.10,5,Rain,113
2013-8-7,88,80,72,78,74,72,100,85,65,30.06,30.02,29.99,10,10,10,9,3,,0.00,2,Rain,96
2013-8-8,87,78,70,81,77,70,100,93,74,30.08,30.04,29.99,10,8,0,15,3,23,0.53,4,Fog-Rain-Thunderstorm,95
2013-8-9,91,82,73,80,77,73,100,85,59,30.12,30.08,30.02,10,10,10,10,3,,0.00,1,,151
2013-8-10,92,82,72,80,77,72,100,85,62,30.15,30.12,30.08,10,10,10,10,2,,0.00,2,,172
2013-8-11,95,85,76,81,78,75,100,83,54,30.18,30.13,30.07,10,10,10,6,2,,0.00,2,,202
2013-8-12,96,86,75,79,76,73,100,82,53,30.12,30.04,29.98,10,9,2,21,5,29,0.20,3,Rain-Thunderstorm,211
2013-8-13,93,84,75,79,77,76,100,83,59,30.02,29.95,29.88,10,9,2,16,5,20,0.07,3,Rain-Thunderstorm,223
2013-8-14,93,82,73,78,75,73,100,93,60,30.02,29.95,29.86,10,8,1,17,6,25,0.76,6,Rain-Thunderstorm,275
2013-8-15,78,74,69,79,73,70,100,99,94,30.07,30.00,29.96,10,8,1,15,5,,0.45,8,Rain-Thunderstorm,37
2013-8-16,87,78,69,81,74,70,100,97,77,30.07,30.02,29.95,10,6,0,15,3,17,0.55,7,Fog-Rain-Thunderstorm,72
2013-8-17,83,78,72,80,75,73,100,99,84,30.15,30.08,30.02,10,9,1,13,2,22,0.95,7,Rain-Thunderstorm,48
2013-8-18,88,78,70,82,78,70,100,94,78,30.17,30.12,30.08,10,10,6,13,3,,0.09,5,Rain,87
2013-8-19,90,82,74,82,78,74,100,94,70,30.13,30.06,30.01,10,9,0,12,3,,0.45,5,Fog-Rain-Thunderstorm,72
2013-8-20,88,80,72,82,77,73,100,96,76,30.15,30.09,30.05,10,7,0,16,2,21,0.68,3,Fog-Rain-Thunderstorm,96
2013-8-21,87,80,72,82,76,72,100,98,81,30.21,30.17,30.12,10,9,0,17,2,23,0.85,4,Fog-Rain-Thunderstorm,72
2013-8-22,89,81,73,81,76,73,100,94,74,30.16,30.11,30.05,10,10,5,8,1,,0.00,4,Thunderstorm,95
2013-8-23,90,80,70,79,75,70,100,87,60,30.07,30.04,30.00,10,10,9,7,1,,0.00,1,,223
2013-8-24,86,78,71,79,75,72,100,96,77,30.20,30.11,30.04,10,9,2,14,3,,0.16,4,Rain,48
2013-8-25,85,78,70,75,70,65,100,80,50,30.28,30.23,30.19,10,10,10,13,6,21,0.00,2,,38
2013-8-26,82,76,71,76,72,65,100,87,74,30.24,30.20,30.13,10,10,10,12,6,,0.00,7,,64
2013-8-27,87,78,70,77,73,70,100,89,59,30.15,30.08,30.03,10,10,9,6,2,,0.00,3,,22
2013-8-28,88,78,67,75,70,68,100,90,57,30.06,30.02,29.97,10,9,4,7,1,,0.00,1,,198
2013-8-29,93,80,69,78,75,69,100,82,60,30.00,29.95,29.89,10,10,10,14,5,17,0.00,1,,246
2013-8-30,90,82,75,81,77,72,100,93,75,29.98,29.93,29.90,10,8,0,22,4,32,1.04,4,Rain-Thunderstorm,67
2013-8-31,89,81,73,82,77,73,100,96,76,29.98,29.94,29.89,10,7,0,16,3,18,0.08,4,Fog-Rain-Thunderstorm,74